sensor_id;sensor_type;location;lat;lon;timestamp;P1;durP1;ratioP1;P2;durP2;ratioP2
50631;SDS011;49583;45.590;-122.498;2023-04-03T00:02:01;0.50;;;0.50;;
50631;SDS011;49583;45.590;-122.498;2023-04-03T00:04:13;1.00;;;0.70;;
50631;SDS011;49583;45.590;-122.498;2023-04-03T00:06:28;0.80;;;0.80;;
50631;SDS011;49583;45.590;-122.498;2023-04-03T00:08:42;0.70;;;0.70;;
50631;SDS011;49583;45.590;-122.498;2023-04-03T00:10:56;0.60;;;0.50;;
50631;SDS011;49583;45.590;-122.498;2023-04-03T00:13:09;1.10;;;0.80;;
50631;SDS011;49583;45.590;-122.498;2023-04-03T00:15:23;2.50;;;0.60;;
50631;SDS011;49583;45.590;-122.498;2023-04-03T00:17:36;1.10;;;1.00;;
50631;SDS011;49583;45.590;-122.498;2023-04-03T00:19:49;0.50;;;0.50;;
50631;SDS011;49583;45.590;-122.498;2023-04-03T00:22:03;0.90;;;0.50;;
50631;SDS011;49583;45.590;-122.498;2023-04-03T00:24:16;2.00;;;0.70;;
50631;SDS011;49583;45.590;-122.498;2023-04-03T00:26:30;1.50;;;0.80;;
50631;SDS011;49583;45.590;-122.498;2023-04-03T00:28:42;1.70;;;0.80;;
50631;SDS011;49583;45.590;-122.498;2023-04-03T00:30:55;3.10;;;1.10;;
50631;SDS011;49583;45.590;-122.498;2023-04-03T00:33:08;1.30;;;0.90;;
50631;SDS011;49583;45.590;-122.498;2023-04-03T00:35:24;2.00;;;0.90;;
50631;SDS011;49583;45.590;-122.498;2023-04-03T00:37:38;3.20;;;1.20;;
50631;SDS011;49583;45.590;-122.498;2023-04-03T00:39:51;1.20;;;1.00;;
50631;SDS011;49583;45.590;-122.498;2023-04-03T00:42:05;3.30;;;1.10;;
50631;SDS011;49583;45.590;-122.498;2023-04-03T00:47:10;1.10;;;1.00;;
50631;SDS011;49583;45.590;-122.498;2023-04-03T00:49:25;0.90;;;0.80;;
50631;SDS011;49583;45.590;-122.498;2023-04-03T00:51:40;1.40;;;0.90;;
50631;SDS011;49583;45.590;-122.498;2023-04-03T00:53:54;1.10;;;0.70;;
50631;SDS011;49583;45.590;-122.498;2023-04-03T00:56:12;2.20;;;0.80;;
50631;SDS011;49583;45.590;-122.498;2023-04-03T00:58:30;3.30;;;0.80;;
50631;SDS011;49583;45.590;-122.498;2023-04-03T01:00:48;1.00;;;0.70;;
50631;SDS011;49583;45.590;-122.498;2023-04-03T01:03:05;0.90;;;0.70;;
50631;SDS011;49583;45.590;-122.498;2023-04-03T01:05:18;0.60;;;0.60;;
50631;SDS011;49583;45.590;-122.498;2023-04-03T01:07:32;1.10;;;0.40;;
50631;SDS011;49583;45.590;-122.498;2023-04-03T01:09:45;2.80;;;1.00;;
50631;SDS011;49583;45.590;-122.498;2023-04-03T01:14:28;0.80;;;0.80;;
50631;SDS011;49583;45.590;-122.498;2023-04-03T01:16:41;2.40;;;0.90;;
50631;SDS011;49583;45.590;-122.498;2023-04-03T01:19:02;1.70;;;1.10;;
50631;SDS011;49583;45.590;-122.498;2023-04-03T01:21:34;2.20;;;1.20;;
50631;SDS011;49583;45.590;-122.498;2023-04-03T01:26:42;2.40;;;0.80;;
50631;SDS011;49583;45.590;-122.498;2023-04-03T01:28:55;2.20;;;0.90;;
50631;SDS011;49583;45.590;-122.498;2023-04-03T01:31:10;1.40;;;0.80;;
50631;SDS011;49583;45.590;-122.498;2023-04-03T01:33:30;0.90;;;0.80;;
50631;SDS011;49583;45.590;-122.498;2023-04-03T01:35:45;1.40;;;0.80;;
50631;SDS011;49583;45.590;-122.498;2023-04-03T01:37:58;0.90;;;0.70;;
50631;SDS011;49583;45.590;-122.498;2023-04-03T01:40:13;0.60;;;0.60;;
50631;SDS011;49583;45.590;-122.498;2023-04-03T01:42:28;0.50;;;0.50;;
50631;SDS011;49583;45.590;-122.498;2023-04-03T01:44:44;0.70;;;0.70;;
50631;SDS011;49583;45.590;-122.498;2023-04-03T01:46:57;0.50;;;0.50;;
50631;SDS011;49583;45.590;-122.498;2023-04-03T01:49:16;0.60;;;0.60;;
50631;SDS011;49583;45.590;-122.498;2023-04-03T01:51:29;0.60;;;0.60;;
50631;SDS011;49583;45.590;-122.498;2023-04-03T01:53:44;0.50;;;0.50;;
50631;SDS011;49583;45.590;-122.498;2023-04-03T01:55:58;0.50;;;0.50;;
50631;SDS011;49583;45.590;-122.498;2023-04-03T01:58:12;0.50;;;0.50;;
50631;SDS011;49583;45.590;-122.498;2023-04-03T02:00:26;1.40;;;1.00;;
50631;SDS011;49583;45.590;-122.498;2023-04-03T02:02:40;1.20;;;0.60;;
50631;SDS011;49583;45.590;-122.498;2023-04-03T02:04:56;0.60;;;0.60;;
50631;SDS011;49583;45.590;-122.498;2023-04-03T02:07:11;0.80;;;0.80;;
50631;SDS011;49583;45.590;-122.498;2023-04-03T02:09:25;0.90;;;0.90;;
50631;SDS011;49583;45.590;-122.498;2023-04-03T02:11:39;1.50;;;0.80;;
50631;SDS011;49583;45.590;-122.498;2023-04-03T02:13:53;0.90;;;0.80;;
50631;SDS011;49583;45.590;-122.498;2023-04-03T02:16:10;0.80;;;0.80;;
50631;SDS011;49583;45.590;-122.498;2023-04-03T02:18:23;1.50;;;0.90;;
50631;SDS011;49583;45.590;-122.498;2023-04-03T02:20:36;1.50;;;0.90;;
50631;SDS011;49583;45.590;-122.498;2023-04-03T02:22:50;0.60;;;0.60;;
50631;SDS011;49583;45.590;-122.498;2023-04-03T02:25:06;1.20;;;1.10;;
50631;SDS011;49583;45.590;-122.498;2023-04-03T02:27:21;1.70;;;1.20;;
50631;SDS011;49583;45.590;-122.498;2023-04-03T02:29:35;1.50;;;1.00;;
50631;SDS011;49583;45.590;-122.498;2023-04-03T02:31:49;0.90;;;0.90;;
50631;SDS011;49583;45.590;-122.498;2023-04-03T02:34:03;3.90;;;1.40;;
50631;SDS011;49583;45.590;-122.498;2023-04-03T02:36:17;1.70;;;1.10;;
50631;SDS011;49583;45.590;-122.498;2023-04-03T02:38:34;0.80;;;0.80;;
50631;SDS011;49583;45.590;-122.498;2023-04-03T02:40:48;1.40;;;1.00;;
50631;SDS011;49583;45.590;-122.498;2023-04-03T02:43:05;1.60;;;1.10;;
50631;SDS011;49583;45.590;-122.498;2023-04-03T02:45:18;2.00;;;1.10;;
50631;SDS011;49583;45.590;-122.498;2023-04-03T02:47:33;1.30;;;1.10;;
50631;SDS011;49583;45.590;-122.498;2023-04-03T02:49:46;0.90;;;0.70;;
50631;SDS011;49583;45.590;-122.498;2023-04-03T02:52:01;0.90;;;0.80;;
50631;SDS011;49583;45.590;-122.498;2023-04-03T02:54:14;1.20;;;1.10;;
50631;SDS011;49583;45.590;-122.498;2023-04-03T02:56:31;1.40;;;0.80;;
50631;SDS011;49583;45.590;-122.498;2023-04-03T02:58:45;1.10;;;0.70;;
50631;SDS011;49583;45.590;-122.498;2023-04-03T03:00:59;1.70;;;0.80;;
50631;SDS011;49583;45.590;-122.498;2023-04-03T03:03:12;1.90;;;0.90;;
50631;SDS011;49583;45.590;-122.498;2023-04-03T03:05:24;0.80;;;0.70;;
50631;SDS011;49583;45.590;-122.498;2023-04-03T03:07:37;1.20;;;1.10;;
50631;SDS011;49583;45.590;-122.498;2023-04-03T03:09:50;2.30;;;0.70;;
50631;SDS011;49583;45.590;-122.498;2023-04-03T03:12:05;1.40;;;0.80;;
50631;SDS011;49583;45.590;-122.498;2023-04-03T03:14:18;0.70;;;0.70;;
50631;SDS011;49583;45.590;-122.498;2023-04-03T03:16:31;0.80;;;0.80;;
50631;SDS011;49583;45.590;-122.498;2023-04-03T03:18:44;0.70;;;0.70;;
50631;SDS011;49583;45.590;-122.498;2023-04-03T03:20:58;1.20;;;0.70;;
50631;SDS011;49583;45.590;-122.498;2023-04-03T03:23:13;0.80;;;0.80;;
50631;SDS011;49583;45.590;-122.498;2023-04-03T03:25:27;1.00;;;0.90;;
50631;SDS011;49583;45.590;-122.498;2023-04-03T03:27:40;0.90;;;0.90;;
50631;SDS011;49583;45.590;-122.498;2023-04-03T03:29:53;1.20;;;1.10;;
50631;SDS011;49583;45.590;-122.498;2023-04-03T03:32:06;1.80;;;1.60;;
50631;SDS011;49583;45.590;-122.498;2023-04-03T03:34:19;1.30;;;1.20;;
50631;SDS011;49583;45.590;-122.498;2023-04-03T03:36:32;2.60;;;1.50;;
50631;SDS011;49583;45.590;-122.498;2023-04-03T03:38:45;2.70;;;1.80;;
50631;SDS011;49583;45.590;-122.498;2023-04-03T03:40:58;2.00;;;1.70;;
50631;SDS011;49583;45.590;-122.498;2023-04-03T03:43:13;1.90;;;1.70;;
50631;SDS011;49583;45.590;-122.498;2023-04-03T03:45:26;1.80;;;1.70;;
50631;SDS011;49583;45.590;-122.498;2023-04-03T03:47:40;3.50;;;1.40;;
50631;SDS011;49583;45.590;-122.498;2023-04-03T03:49:54;2.90;;;1.50;;
50631;SDS011;49583;45.590;-122.498;2023-04-03T03:52:08;3.40;;;1.80;;
50631;SDS011;49583;45.590;-122.498;2023-04-03T03:54:22;5.70;;;1.40;;
50631;SDS011;49583;45.590;-122.498;2023-04-03T03:56:37;1.90;;;1.50;;
50631;SDS011;49583;45.590;-122.498;2023-04-03T03:58:50;2.30;;;1.20;;
50631;SDS011;49583;45.590;-122.498;2023-04-03T04:01:04;2.20;;;1.50;;
50631;SDS011;49583;45.590;-122.498;2023-04-03T04:03:22;2.40;;;1.90;;
50631;SDS011;49583;45.590;-122.498;2023-04-03T04:05:35;3.90;;;1.70;;
50631;SDS011;49583;45.590;-122.498;2023-04-03T04:07:49;2.80;;;2.00;;
50631;SDS011;49583;45.590;-122.498;2023-04-03T04:10:03;2.70;;;1.60;;
50631;SDS011;49583;45.590;-122.498;2023-04-03T04:12:19;2.10;;;1.60;;
50631;SDS011;49583;45.590;-122.498;2023-04-03T04:14:34;2.80;;;1.50;;
50631;SDS011;49583;45.590;-122.498;2023-04-03T04:16:48;5.50;;;2.20;;
50631;SDS011;49583;45.590;-122.498;2023-04-03T04:19:03;2.80;;;1.80;;
50631;SDS011;49583;45.590;-122.498;2023-04-03T04:21:19;2.50;;;1.60;;
50631;SDS011;49583;45.590;-122.498;2023-04-03T04:23:34;1.80;;;1.70;;
50631;SDS011;49583;45.590;-122.498;2023-04-03T04:25:48;1.90;;;1.70;;
50631;SDS011;49583;45.590;-122.498;2023-04-03T04:28:02;4.50;;;1.90;;
50631;SDS011;49583;45.590;-122.498;2023-04-03T04:30:15;2.40;;;1.70;;
50631;SDS011;49583;45.590;-122.498;2023-04-03T04:32:28;1.80;;;1.70;;
50631;SDS011;49583;45.590;-122.498;2023-04-03T04:34:41;2.70;;;1.80;;
50631;SDS011;49583;45.590;-122.498;2023-04-03T04:36:55;2.50;;;1.90;;
50631;SDS011;49583;45.590;-122.498;2023-04-03T04:39:09;3.20;;;1.90;;
50631;SDS011;49583;45.590;-122.498;2023-04-03T04:41:22;2.30;;;1.80;;
50631;SDS011;49583;45.590;-122.498;2023-04-03T04:43:35;3.80;;;2.60;;
50631;SDS011;49583;45.590;-122.498;2023-04-03T04:45:48;2.20;;;2.00;;
50631;SDS011;49583;45.590;-122.498;2023-04-03T04:48:11;2.30;;;1.80;;
50631;SDS011;49583;45.590;-122.498;2023-04-03T04:50:24;2.10;;;1.90;;
50631;SDS011;49583;45.590;-122.498;2023-04-03T04:52:38;2.00;;;1.60;;
50631;SDS011;49583;45.590;-122.498;2023-04-03T04:54:51;2.80;;;1.70;;
50631;SDS011;49583;45.590;-122.498;2023-04-03T04:57:04;2.80;;;2.10;;
50631;SDS011;49583;45.590;-122.498;2023-04-03T04:59:18;1.60;;;1.50;;
50631;SDS011;49583;45.590;-122.498;2023-04-03T05:01:33;2.90;;;1.50;;
50631;SDS011;49583;45.590;-122.498;2023-04-03T05:03:48;2.30;;;2.10;;
50631;SDS011;49583;45.590;-122.498;2023-04-03T05:06:03;3.30;;;2.00;;
50631;SDS011;49583;45.590;-122.498;2023-04-03T05:08:17;3.30;;;1.90;;
50631;SDS011;49583;45.590;-122.498;2023-04-03T05:10:30;3.10;;;2.00;;
50631;SDS011;49583;45.590;-122.498;2023-04-03T05:12:44;2.00;;;1.60;;
50631;SDS011;49583;45.590;-122.498;2023-04-03T05:14:59;1.90;;;1.70;;
50631;SDS011;49583;45.590;-122.498;2023-04-03T05:17:12;1.80;;;1.60;;
50631;SDS011;49583;45.590;-122.498;2023-04-03T05:19:28;2.20;;;1.90;;
50631;SDS011;49583;45.590;-122.498;2023-04-03T05:21:42;2.70;;;2.30;;
50631;SDS011;49583;45.590;-122.498;2023-04-03T05:23:57;3.50;;;1.90;;
50631;SDS011;49583;45.590;-122.498;2023-04-03T05:26:12;5.00;;;2.20;;
50631;SDS011;49583;45.590;-122.498;2023-04-03T05:28:27;2.50;;;2.20;;
50631;SDS011;49583;45.590;-122.498;2023-04-03T05:30:41;3.30;;;2.40;;
50631;SDS011;49583;45.590;-122.498;2023-04-03T05:32:55;3.90;;;3.50;;
50631;SDS011;49583;45.590;-122.498;2023-04-03T05:35:17;2.10;;;1.90;;
50631;SDS011;49583;45.590;-122.498;2023-04-03T05:37:33;2.90;;;2.10;;
50631;SDS011;49583;45.590;-122.498;2023-04-03T05:39:47;3.90;;;2.20;;
50631;SDS011;49583;45.590;-122.498;2023-04-03T05:42:02;2.50;;;2.00;;
50631;SDS011;49583;45.590;-122.498;2023-04-03T05:44:15;3.40;;;2.40;;
50631;SDS011;49583;45.590;-122.498;2023-04-03T05:46:28;3.00;;;2.10;;
50631;SDS011;49583;45.590;-122.498;2023-04-03T05:48:44;1.90;;;1.80;;
50631;SDS011;49583;45.590;-122.498;2023-04-03T05:50:59;8.10;;;4.50;;
50631;SDS011;49583;45.590;-122.498;2023-04-03T05:53:13;4.30;;;3.20;;
50631;SDS011;49583;45.590;-122.498;2023-04-03T05:55:32;5.80;;;3.40;;
50631;SDS011;49583;45.590;-122.498;2023-04-03T05:57:45;3.90;;;3.30;;
50631;SDS011;49583;45.590;-122.498;2023-04-03T05:59:59;4.10;;;3.60;;
50631;SDS011;49583;45.590;-122.498;2023-04-03T06:02:19;5.00;;;2.80;;
50631;SDS011;49583;45.590;-122.498;2023-04-03T06:04:36;3.20;;;2.70;;
50631;SDS011;49583;45.590;-122.498;2023-04-03T06:06:51;5.40;;;2.60;;
50631;SDS011;49583;45.590;-122.498;2023-04-03T06:09:05;3.00;;;2.60;;
50631;SDS011;49583;45.590;-122.498;2023-04-03T06:11:18;4.30;;;3.30;;
50631;SDS011;49583;45.590;-122.498;2023-04-03T06:13:31;2.90;;;2.40;;
50631;SDS011;49583;45.590;-122.498;2023-04-03T06:15:44;3.80;;;2.90;;
50631;SDS011;49583;45.590;-122.498;2023-04-03T06:17:57;3.00;;;2.50;;
50631;SDS011;49583;45.590;-122.498;2023-04-03T06:20:11;5.00;;;3.70;;
50631;SDS011;49583;45.590;-122.498;2023-04-03T06:22:23;4.20;;;3.30;;
50631;SDS011;49583;45.590;-122.498;2023-04-03T06:24:37;4.00;;;2.90;;
50631;SDS011;49583;45.590;-122.498;2023-04-03T06:26:51;4.20;;;2.50;;
50631;SDS011;49583;45.590;-122.498;2023-04-03T06:29:04;5.60;;;2.80;;
50631;SDS011;49583;45.590;-122.498;2023-04-03T06:31:18;3.00;;;2.40;;
50631;SDS011;49583;45.590;-122.498;2023-04-03T06:33:31;4.10;;;2.80;;
50631;SDS011;49583;45.590;-122.498;2023-04-03T06:35:46;3.90;;;2.90;;
50631;SDS011;49583;45.590;-122.498;2023-04-03T06:38:02;5.30;;;3.20;;
50631;SDS011;49583;45.590;-122.498;2023-04-03T06:40:18;4.90;;;3.20;;
50631;SDS011;49583;45.590;-122.498;2023-04-03T06:42:34;5.60;;;3.70;;
50631;SDS011;49583;45.590;-122.498;2023-04-03T06:44:50;5.90;;;5.00;;
50631;SDS011;49583;45.590;-122.498;2023-04-03T06:47:04;8.50;;;4.40;;
50631;SDS011;49583;45.590;-122.498;2023-04-03T06:49:19;7.30;;;4.40;;
50631;SDS011;49583;45.590;-122.498;2023-04-03T06:51:34;4.90;;;4.10;;
50631;SDS011;49583;45.590;-122.498;2023-04-03T06:53:48;5.10;;;3.90;;
50631;SDS011;49583;45.590;-122.498;2023-04-03T06:56:02;5.60;;;3.90;;
50631;SDS011;49583;45.590;-122.498;2023-04-03T06:58:16;5.90;;;3.10;;
50631;SDS011;49583;45.590;-122.498;2023-04-03T07:00:31;3.00;;;2.70;;
50631;SDS011;49583;45.590;-122.498;2023-04-03T07:02:44;4.60;;;2.70;;
50631;SDS011;49583;45.590;-122.498;2023-04-03T07:04:58;3.80;;;3.10;;
50631;SDS011;49583;45.590;-122.498;2023-04-03T07:07:12;3.80;;;2.80;;
50631;SDS011;49583;45.590;-122.498;2023-04-03T07:09:26;4.00;;;3.40;;
50631;SDS011;49583;45.590;-122.498;2023-04-03T07:11:40;5.90;;;3.10;;
50631;SDS011;49583;45.590;-122.498;2023-04-03T07:13:54;3.30;;;3.00;;
50631;SDS011;49583;45.590;-122.498;2023-04-03T07:16:07;5.70;;;3.50;;
50631;SDS011;49583;45.590;-122.498;2023-04-03T07:18:21;4.10;;;3.20;;
50631;SDS011;49583;45.590;-122.498;2023-04-03T07:20:34;3.80;;;3.40;;
50631;SDS011;49583;45.590;-122.498;2023-04-03T07:22:48;3.20;;;2.70;;
50631;SDS011;49583;45.590;-122.498;2023-04-03T07:25:00;3.30;;;2.80;;
50631;SDS011;49583;45.590;-122.498;2023-04-03T07:27:14;4.40;;;3.10;;
50631;SDS011;49583;45.590;-122.498;2023-04-03T07:29:27;4.50;;;3.20;;
50631;SDS011;49583;45.590;-122.498;2023-04-03T07:31:42;3.30;;;3.00;;
50631;SDS011;49583;45.590;-122.498;2023-04-03T07:33:55;3.60;;;3.30;;
50631;SDS011;49583;45.590;-122.498;2023-04-03T07:36:08;4.80;;;3.20;;
50631;SDS011;49583;45.590;-122.498;2023-04-03T07:38:23;4.50;;;3.00;;
50631;SDS011;49583;45.590;-122.498;2023-04-03T07:40:36;3.80;;;3.10;;
50631;SDS011;49583;45.590;-122.498;2023-04-03T07:42:49;3.60;;;3.10;;
50631;SDS011;49583;45.590;-122.498;2023-04-03T07:45:04;4.80;;;3.10;;
50631;SDS011;49583;45.590;-122.498;2023-04-03T07:47:17;4.30;;;3.00;;
50631;SDS011;49583;45.590;-122.498;2023-04-03T07:49:30;3.00;;;2.70;;
50631;SDS011;49583;45.590;-122.498;2023-04-03T07:51:45;3.80;;;3.00;;
50631;SDS011;49583;45.590;-122.498;2023-04-03T07:53:58;3.50;;;2.80;;
50631;SDS011;49583;45.590;-122.498;2023-04-03T07:56:11;3.70;;;3.10;;
50631;SDS011;49583;45.590;-122.498;2023-04-03T07:58:25;3.30;;;2.90;;
50631;SDS011;49583;45.590;-122.498;2023-04-03T08:00:40;3.50;;;3.20;;
50631;SDS011;49583;45.590;-122.498;2023-04-03T08:02:55;3.90;;;2.80;;
50631;SDS011;49583;45.590;-122.498;2023-04-03T08:05:10;3.40;;;3.10;;
50631;SDS011;49583;45.590;-122.498;2023-04-03T08:07:23;4.80;;;2.90;;
50631;SDS011;49583;45.590;-122.498;2023-04-03T08:09:36;6.10;;;3.40;;
50631;SDS011;49583;45.590;-122.498;2023-04-03T08:11:50;3.10;;;2.80;;
50631;SDS011;49583;45.590;-122.498;2023-04-03T08:14:03;4.60;;;3.10;;
50631;SDS011;49583;45.590;-122.498;2023-04-03T08:16:19;4.40;;;3.30;;
50631;SDS011;49583;45.590;-122.498;2023-04-03T08:18:34;4.90;;;2.90;;
50631;SDS011;49583;45.590;-122.498;2023-04-03T08:20:48;5.10;;;2.70;;
50631;SDS011;49583;45.590;-122.498;2023-04-03T08:23:02;4.40;;;2.80;;
50631;SDS011;49583;45.590;-122.498;2023-04-03T08:25:16;4.80;;;2.50;;
50631;SDS011;49583;45.590;-122.498;2023-04-03T08:27:29;4.60;;;3.00;;
50631;SDS011;49583;45.590;-122.498;2023-04-03T08:29:43;3.60;;;2.50;;
50631;SDS011;49583;45.590;-122.498;2023-04-03T08:31:57;4.20;;;2.80;;
50631;SDS011;49583;45.590;-122.498;2023-04-03T08:34:11;3.30;;;2.70;;
50631;SDS011;49583;45.590;-122.498;2023-04-03T08:36:25;3.10;;;2.80;;
50631;SDS011;49583;45.590;-122.498;2023-04-03T08:38:39;3.40;;;2.90;;
50631;SDS011;49583;45.590;-122.498;2023-04-03T08:41:00;2.70;;;2.50;;
50631;SDS011;49583;45.590;-122.498;2023-04-03T08:43:27;3.90;;;2.40;;
50631;SDS011;49583;45.590;-122.498;2023-04-03T08:45:48;4.60;;;2.30;;
50631;SDS011;49583;45.590;-122.498;2023-04-03T08:48:05;6.60;;;2.60;;
50631;SDS011;49583;45.590;-122.498;2023-04-03T08:50:24;7.70;;;2.80;;
50631;SDS011;49583;45.590;-122.498;2023-04-03T08:52:42;2.40;;;2.20;;
50631;SDS011;49583;45.590;-122.498;2023-04-03T08:54:59;4.50;;;2.10;;
50631;SDS011;49583;45.590;-122.498;2023-04-03T08:57:15;3.70;;;2.30;;
50631;SDS011;49583;45.590;-122.498;2023-04-03T08:59:34;3.90;;;2.50;;
50631;SDS011;49583;45.590;-122.498;2023-04-03T09:01:50;3.30;;;2.90;;
50631;SDS011;49583;45.590;-122.498;2023-04-03T09:04:08;3.20;;;2.40;;
50631;SDS011;49583;45.590;-122.498;2023-04-03T09:06:27;3.00;;;2.20;;
50631;SDS011;49583;45.590;-122.498;2023-04-03T09:08:44;3.50;;;2.60;;
50631;SDS011;49583;45.590;-122.498;2023-04-03T09:11:04;4.70;;;2.10;;
50631;SDS011;49583;45.590;-122.498;2023-04-03T09:13:26;2.60;;;2.30;;
50631;SDS011;49583;45.590;-122.498;2023-04-03T09:15:47;2.70;;;1.70;;
50631;SDS011;49583;45.590;-122.498;2023-04-03T09:18:03;2.20;;;2.00;;
50631;SDS011;49583;45.590;-122.498;2023-04-03T09:20:24;3.00;;;2.10;;
50631;SDS011;49583;45.590;-122.498;2023-04-03T09:22:45;3.00;;;2.10;;
50631;SDS011;49583;45.590;-122.498;2023-04-03T09:25:01;3.70;;;2.00;;
50631;SDS011;49583;45.590;-122.498;2023-04-03T09:27:17;2.50;;;2.20;;
50631;SDS011;49583;45.590;-122.498;2023-04-03T09:29:31;2.10;;;1.60;;
50631;SDS011;49583;45.590;-122.498;2023-04-03T09:31:50;2.00;;;1.70;;
50631;SDS011;49583;45.590;-122.498;2023-04-03T09:34:09;2.40;;;1.60;;
50631;SDS011;49583;45.590;-122.498;2023-04-03T09:36:42;3.30;;;1.80;;
50631;SDS011;49583;45.590;-122.498;2023-04-03T09:39:05;4.30;;;2.40;;
50631;SDS011;49583;45.590;-122.498;2023-04-03T09:41:21;2.70;;;1.60;;
50631;SDS011;49583;45.590;-122.498;2023-04-03T09:43:35;3.50;;;1.80;;
50631;SDS011;49583;45.590;-122.498;2023-04-03T09:48:38;2.20;;;1.60;;
50631;SDS011;49583;45.590;-122.498;2023-04-03T09:51:14;5.50;;;1.80;;
50631;SDS011;49583;45.590;-122.498;2023-04-03T09:53:31;1.80;;;1.50;;
50631;SDS011;49583;45.590;-122.498;2023-04-03T09:55:47;7.70;;;1.70;;
50631;SDS011;49583;45.590;-122.498;2023-04-03T09:58:00;1.60;;;1.30;;
50631;SDS011;49583;45.590;-122.498;2023-04-03T10:00:22;2.50;;;1.60;;
50631;SDS011;49583;45.590;-122.498;2023-04-03T10:02:38;2.70;;;1.60;;
50631;SDS011;49583;45.590;-122.498;2023-04-03T10:04:52;2.50;;;1.60;;
50631;SDS011;49583;45.590;-122.498;2023-04-03T10:07:33;3.20;;;1.60;;
50631;SDS011;49583;45.590;-122.498;2023-04-03T10:09:57;3.10;;;1.40;;
50631;SDS011;49583;45.590;-122.498;2023-04-03T10:12:14;3.60;;;1.50;;
50631;SDS011;49583;45.590;-122.498;2023-04-03T10:14:34;1.60;;;1.30;;
50631;SDS011;49583;45.590;-122.498;2023-04-03T10:16:50;2.00;;;1.70;;
50631;SDS011;49583;45.590;-122.498;2023-04-03T10:19:21;1.90;;;1.50;;
50631;SDS011;49583;45.590;-122.498;2023-04-03T10:21:46;2.30;;;1.50;;
50631;SDS011;49583;45.590;-122.498;2023-04-03T10:24:08;2.20;;;1.60;;
50631;SDS011;49583;45.590;-122.498;2023-04-03T10:26:29;5.50;;;1.80;;
50631;SDS011;49583;45.590;-122.498;2023-04-03T10:28:51;3.60;;;1.40;;
50631;SDS011;49583;45.590;-122.498;2023-04-03T10:31:13;1.40;;;1.20;;
50631;SDS011;49583;45.590;-122.498;2023-04-03T10:33:42;1.60;;;1.40;;
50631;SDS011;49583;45.590;-122.498;2023-04-03T10:36:10;3.40;;;1.60;;
50631;SDS011;49583;45.590;-122.498;2023-04-03T10:38:33;2.80;;;1.50;;
50631;SDS011;49583;45.590;-122.498;2023-04-03T10:40:55;2.40;;;1.80;;
50631;SDS011;49583;45.590;-122.498;2023-04-03T10:43:16;1.50;;;1.30;;
50631;SDS011;49583;45.590;-122.498;2023-04-03T10:48:11;1.60;;;1.50;;
50631;SDS011;49583;45.590;-122.498;2023-04-03T10:50:39;2.70;;;1.30;;
50631;SDS011;49583;45.590;-122.498;2023-04-03T10:53:03;3.00;;;1.20;;
50631;SDS011;49583;45.590;-122.498;2023-04-03T10:55:24;1.50;;;1.40;;
50631;SDS011;49583;45.590;-122.498;2023-04-03T10:57:46;2.20;;;1.10;;
50631;SDS011;49583;45.590;-122.498;2023-04-03T11:00:03;1.80;;;1.20;;
50631;SDS011;49583;45.590;-122.498;2023-04-03T11:02:28;2.80;;;1.20;;
50631;SDS011;49583;45.590;-122.498;2023-04-03T11:04:47;1.30;;;1.00;;
50631;SDS011;49583;45.590;-122.498;2023-04-03T11:07:07;1.30;;;1.00;;
50631;SDS011;49583;45.590;-122.498;2023-04-03T11:09:26;2.20;;;1.10;;
50631;SDS011;49583;45.590;-122.498;2023-04-03T11:11:45;2.40;;;1.30;;
50631;SDS011;49583;45.590;-122.498;2023-04-03T11:14:03;1.20;;;1.10;;
50631;SDS011;49583;45.590;-122.498;2023-04-03T11:16:26;2.60;;;0.90;;
50631;SDS011;49583;45.590;-122.498;2023-04-03T11:18:54;2.10;;;1.30;;
50631;SDS011;49583;45.590;-122.498;2023-04-03T11:21:11;1.30;;;1.20;;
50631;SDS011;49583;45.590;-122.498;2023-04-03T11:23:31;1.90;;;1.40;;
50631;SDS011;49583;45.590;-122.498;2023-04-03T11:25:56;2.00;;;1.40;;
50631;SDS011;49583;45.590;-122.498;2023-04-03T11:28:16;1.30;;;1.10;;
50631;SDS011;49583;45.590;-122.498;2023-04-03T11:30:32;3.80;;;1.60;;
50631;SDS011;49583;45.590;-122.498;2023-04-03T11:35:44;2.80;;;1.30;;
50631;SDS011;49583;45.590;-122.498;2023-04-03T11:37:59;1.00;;;1.00;;
50631;SDS011;49583;45.590;-122.498;2023-04-03T11:40:21;1.10;;;1.00;;
50631;SDS011;49583;45.590;-122.498;2023-04-03T11:42:38;2.70;;;1.10;;
50631;SDS011;49583;45.590;-122.498;2023-04-03T11:44:53;3.00;;;1.00;;
50631;SDS011;49583;45.590;-122.498;2023-04-03T11:47:48;1.60;;;1.50;;
50631;SDS011;49583;45.590;-122.498;2023-04-03T11:50:03;1.80;;;0.90;;
50631;SDS011;49583;45.590;-122.498;2023-04-03T11:58:10;2.20;;;1.10;;
50631;SDS011;49583;45.590;-122.498;2023-04-03T12:03:07;4.20;;;1.00;;
50631;SDS011;49583;45.590;-122.498;2023-04-03T12:08:51;1.20;;;1.00;;
50631;SDS011;49583;45.590;-122.498;2023-04-03T12:13:42;1.10;;;1.00;;
50631;SDS011;49583;45.590;-122.498;2023-04-03T12:16:20;1.70;;;1.30;;
50631;SDS011;49583;45.590;-122.498;2023-04-03T12:21:06;2.40;;;1.30;;
50631;SDS011;49583;45.590;-122.498;2023-04-03T12:23:27;2.10;;;1.30;;
50631;SDS011;49583;45.590;-122.498;2023-04-03T12:25:47;2.90;;;1.20;;
50631;SDS011;49583;45.590;-122.498;2023-04-03T12:28:00;1.10;;;1.00;;
50631;SDS011;49583;45.590;-122.498;2023-04-03T12:30:18;2.30;;;1.10;;
50631;SDS011;49583;45.590;-122.498;2023-04-03T12:32:51;1.60;;;1.10;;
50631;SDS011;49583;45.590;-122.498;2023-04-03T12:35:24;1.50;;;1.20;;
50631;SDS011;49583;45.590;-122.498;2023-04-03T12:37:48;2.70;;;1.10;;
50631;SDS011;49583;45.590;-122.498;2023-04-03T12:40:19;1.10;;;1.00;;
50631;SDS011;49583;45.590;-122.498;2023-04-03T12:42:45;3.80;;;1.50;;
50631;SDS011;49583;45.590;-122.498;2023-04-03T12:45:22;1.10;;;1.00;;
50631;SDS011;49583;45.590;-122.498;2023-04-03T12:47:35;2.70;;;1.10;;
50631;SDS011;49583;45.590;-122.498;2023-04-03T12:49:52;2.00;;;1.20;;
50631;SDS011;49583;45.590;-122.498;2023-04-03T12:52:12;2.60;;;1.30;;
50631;SDS011;49583;45.590;-122.498;2023-04-03T12:54:37;1.40;;;1.00;;
50631;SDS011;49583;45.590;-122.498;2023-04-03T12:56:52;0.90;;;0.90;;
50631;SDS011;49583;45.590;-122.498;2023-04-03T12:59:18;1.50;;;1.20;;
50631;SDS011;49583;45.590;-122.498;2023-04-03T13:01:32;3.40;;;1.40;;
50631;SDS011;49583;45.590;-122.498;2023-04-03T13:03:45;1.90;;;1.20;;
50631;SDS011;49583;45.590;-122.498;2023-04-03T13:06:01;1.60;;;1.00;;
50631;SDS011;49583;45.590;-122.498;2023-04-03T13:08:15;1.20;;;1.10;;
50631;SDS011;49583;45.590;-122.498;2023-04-03T13:10:32;1.60;;;1.40;;
50631;SDS011;49583;45.590;-122.498;2023-04-03T13:12:54;1.60;;;1.10;;
50631;SDS011;49583;45.590;-122.498;2023-04-03T13:15:15;1.30;;;1.00;;
50631;SDS011;49583;45.590;-122.498;2023-04-03T13:17:30;1.90;;;1.20;;
50631;SDS011;49583;45.590;-122.498;2023-04-03T13:19:48;1.10;;;1.00;;
50631;SDS011;49583;45.590;-122.498;2023-04-03T13:22:02;1.10;;;1.10;;
50631;SDS011;49583;45.590;-122.498;2023-04-03T13:24:18;1.70;;;1.10;;
50631;SDS011;49583;45.590;-122.498;2023-04-03T13:26:33;2.90;;;1.20;;
50631;SDS011;49583;45.590;-122.498;2023-04-03T13:28:47;1.00;;;0.90;;
50631;SDS011;49583;45.590;-122.498;2023-04-03T13:31:02;2.30;;;1.00;;
50631;SDS011;49583;45.590;-122.498;2023-04-03T13:33:29;0.90;;;0.90;;
50631;SDS011;49583;45.590;-122.498;2023-04-03T13:35:45;1.20;;;1.00;;
50631;SDS011;49583;45.590;-122.498;2023-04-03T13:38:06;0.80;;;0.80;;
50631;SDS011;49583;45.590;-122.498;2023-04-03T13:40:33;0.90;;;0.90;;